Time;durP1;ratioP1;P1;durP2;ratioP2;P2;SDS_P1;SDS_P2;PMS_P1;PMS_P2;Temp;Humidity;BMP_temperature;BMP_pressure;BME280_temperature;BME280_humidity;BME280_pressure;Samples;Min_cycle;Max_cycle;Signal;HPM_P1;HPM_P2
2023/05/13 00:08:18;;;;;;;13.40;6.00;;;11.50;99.90;;;;;;20840230;28;20308;-73
2023/05/13 00:18:20;;;;;;;7.77;5.80;;;11.50;99.90;;;;;;20839442;28;20642;-73
2023/05/13 00:28:23;;;;;;;7.10;5.30;;;11.40;99.90;;;;;;20839858;28;20248;-71
2023/05/13 00:38:24;;;;;;;9.63;6.10;;;11.30;99.90;;;;;;20838422;28;20237;-73
2023/05/13 00:48:26;;;;;;;6.33;5.33;;;11.30;99.90;;;;;;20837245;28;20268;-73
2023/05/13 00:58:28;;;;;;;10.40;5.73;;;11.20;99.90;;;;;;20836830;28;20237;-73
2023/05/13 01:09:06;;;;;;;9.43;5.90;;;11.20;99.90;;;;;;20835788;28;20680;-72
2023/05/13 01:19:39;;;;;;;7.97;6.07;;;11.10;99.90;;;;;;20834947;28;20299;-73
2023/05/13 01:29:41;;;;;;;6.60;5.60;;;11.10;99.90;;;;;;20834335;28;20206;-73
2023/05/13 01:39:42;;;;;;;6.60;5.90;;;11.10;99.90;;;;;;20832142;28;20696;-73
2023/05/13 01:49:44;;;;;;;8.17;6.23;;;11.10;99.90;;;;;;20832029;28;20224;-73
2023/05/13 01:59:46;;;;;;;9.77;6.00;;;11.10;99.90;;;;;;20831993;28;20236;-73
2023/05/13 02:09:47;;;;;;;9.80;6.00;;;11.00;99.90;;;;;;20831196;28;20217;-74
2023/05/13 02:19:49;;;;;;;10.30;5.70;;;10.90;99.90;;;;;;20830336;28;20241;-72
2023/05/13 02:29:51;;;;;;;11.00;6.00;;;10.80;99.90;;;;;;20830360;28;20209;-73
2023/05/13 02:39:52;;;;;;;10.77;5.97;;;10.80;99.90;;;;;;20829517;28;20245;-73
2023/05/13 02:49:55;;;;;;;13.83;5.23;;;10.70;99.90;;;;;;20843190;28;20246;-73
2023/05/13 02:59:57;;;;;;;8.40;6.10;;;10.70;99.90;;;;;;20846213;28;20233;-72
2023/05/13 03:09:58;;;;;;;11.40;6.23;;;10.70;99.90;;;;;;20845518;28;20212;-73
2023/05/13 03:20:00;;;;;;;8.73;5.70;;;10.60;99.90;;;;;;20843801;28;20245;-73
2023/05/13 03:30:02;;;;;;;7.87;5.87;;;10.60;99.90;;;;;;20843696;28;20208;-76
2023/05/13 03:40:04;;;;;;;6.80;5.70;;;10.60;99.90;;;;;;20842725;28;20427;-76
2023/05/13 03:50:07;;;;;;;5.87;5.10;;;10.50;99.90;;;;;;20841802;28;20244;-73
2023/05/13 04:00:09;;;;;;;6.67;5.00;;;10.40;99.90;;;;;;20840299;28;20225;-74
2023/05/13 04:10:11;;;;;;;12.30;5.50;;;10.40;99.90;;;;;;20841663;28;20260;-72
2023/05/13 04:20:16;;;;;;;7.93;5.90;;;10.40;99.90;;;;;;20840515;28;20727;-73
2023/05/13 04:30:17;;;;;;;9.87;5.60;;;10.60;99.90;;;;;;20839233;28;20204;-73
2023/05/13 04:40:19;;;;;;;8.23;5.20;;;10.70;99.90;;;;;;20837849;28;20237;-74
2023/05/13 04:50:21;;;;;;;7.57;5.50;;;11.00;99.90;;;;;;20837062;28;20213;-74
2023/05/13 05:00:24;;;;;;;13.13;5.43;;;10.80;99.90;;;;;;20836262;28;20237;-74
2023/05/13 05:10:26;;;;;;;6.17;4.67;;;11.00;99.90;;;;;;20851880;28;20212;-77
2023/05/13 05:20:28;;;;;;;9.27;5.33;;;11.60;99.90;;;;;;20904994;28;20248;-77
2023/05/13 05:30:38;;;;;;;10.80;5.43;;;11.60;99.90;;;;;;20915220;28;20207;-76
2023/05/13 05:40:42;;;;;;;16.17;7.10;;;12.20;99.90;;;;;;20914649;28;20640;-78
2023/05/13 05:50:44;;;;;;;11.30;5.60;;;12.40;99.90;;;;;;20913782;28;20270;-76
2023/05/13 06:00:45;;;;;;;15.13;5.40;;;12.70;99.90;;;;;;20911080;28;20256;-83
2023/05/13 06:10:47;;;;;;;10.73;4.80;;;13.30;99.90;;;;;;20873714;28;20206;-78
2023/05/13 06:20:49;;;;;;;5.83;4.73;;;13.40;99.90;;;;;;20863830;28;20249;-77
2023/05/13 06:30:52;;;;;;;7.90;4.70;;;13.80;99.10;;;;;;20867051;28;20204;-78
2023/05/13 06:40:54;;;;;;;11.83;6.87;;;14.00;99.20;;;;;;20865256;28;20582;-76
2023/05/13 06:50:56;;;;;;;11.13;6.30;;;14.30;98.50;;;;;;20866874;28;20204;-73
2023/05/13 07:00:57;;;;;;;6.47;3.70;;;14.80;97.80;;;;;;20907544;28;20235;-74
2023/05/13 07:10:59;;;;;;;3.70;3.07;;;15.10;96.30;;;;;;20903238;28;20651;-75
2023/05/13 07:21:01;;;;;;;3.30;3.00;;;15.50;94.30;;;;;;20859336;28;20600;-73
2023/05/13 07:31:06;;;;;;;3.67;3.20;;;15.80;92.80;;;;;;20832315;28;20208;-73
2023/05/13 07:41:08;;;;;;;3.90;3.10;;;16.00;91.60;;;;;;20841426;28;20232;-79
2023/05/13 07:51:09;;;;;;;5.23;2.60;;;16.30;91.00;;;;;;20842636;28;20206;-75
2023/05/13 08:01:11;;;;;;;5.77;2.93;;;16.40;88.40;;;;;;20848701;28;20246;-76
2023/05/13 08:11:13;;;;;;;2.90;2.60;;;16.50;89.20;;;;;;20843237;28;20206;-76
2023/05/13 08:21:14;;;;;;;4.97;3.07;;;16.70;86.20;;;;;;20839254;28;20256;-76
2023/05/13 08:31:16;;;;;;;3.97;2.97;;;17.00;85.90;;;;;;20849125;28;20206;-77
2023/05/13 08:41:18;;;;;;;5.77;4.90;;;17.00;83.40;;;;;;20837084;28;20243;-77
2023/05/13 08:51:23;;;;;;;3.90;2.90;;;17.30;83.60;;;;;;20836888;28;20234;-77
2023/05/13 09:01:25;;;;;;;5.43;2.90;;;17.60;81.30;;;;;;20836400;28;20233;-77
2023/05/13 09:11:27;;;;;;;9.60;3.70;;;17.70;81.40;;;;;;20836733;28;20206;-77
2023/05/13 09:21:31;;;;;;;9.30;5.67;;;17.60;80.50;;;;;;20834913;28;20275;-77
2023/05/13 09:31:33;;;;;;;6.10;3.20;;;17.60;79.50;;;;;;20834598;28;20660;-77
2023/05/13 09:41:35;;;;;;;7.97;3.20;;;17.80;78.70;;;;;;20833775;28;20586;-76
2023/05/13 09:51:37;;;;;;;3.57;3.07;;;18.20;77.20;;;;;;20832136;28;20611;-78
2023/05/13 10:01:40;;;;;;;4.77;2.70;;;18.50;75.50;;;;;;20831748;28;20239;-78
2023/05/13 10:11:46;;;;;;;4.90;2.87;;;18.80;74.30;;;;;;20831831;28;20208;-78
2023/05/13 10:21:49;;;;;;;3.43;2.80;;;19.40;72.50;;;;;;20830789;28;20244;-78
2023/05/13 10:31:51;;;;;;;4.40;3.00;;;19.90;70.50;;;;;;20831188;28;20208;-78
2023/05/13 10:42:07;;;;;;;4.80;2.90;;;19.90;68.40;;;;;;20830062;28;20233;-79
2023/05/13 10:52:14;;;;;;;3.73;2.80;;;19.70;66.40;;;;;;20828558;28;20208;-79
2023/05/13 11:02:22;;;;;;;2.90;2.57;;;19.70;66.50;;;;;;20827484;28;20236;-78
2023/05/13 11:12:24;;;;;;;2.73;2.27;;;19.90;65.00;;;;;;20842886;28;20255;-78
2023/05/13 11:22:29;;;;;;;3.50;3.00;;;20.30;63.00;;;;;;20842388;28;20269;-78
2023/05/13 11:32:50;;;;;;;3.43;3.03;;;20.50;60.70;;;;;;20846538;28;20208;-78
2023/05/13 11:42:52;;;;;;;7.13;2.63;;;20.60;59.10;;;;;;20871295;28;20255;-78
2023/05/13 11:52:56;;;;;;;2.97;2.47;;;20.60;59.90;;;;;;20846936;28;20624;-78
2023/05/13 12:02:59;;;;;;;3.17;2.70;;;20.70;60.10;;;;;;20842314;28;20243;-78
2023/05/13 12:13:01;;;;;;;7.70;2.70;;;20.80;60.00;;;;;;20842915;28;20315;-79
2023/05/13 12:23:04;;;;;;;4.03;2.63;;;20.80;60.40;;;;;;20840234;28;20232;-78
2023/05/13 12:33:15;;;;;;;4.93;2.60;;;21.30;60.20;;;;;;20840137;28;20219;-77
2023/05/13 12:43:18;;;;;;;3.33;2.80;;;21.50;60.40;;;;;;20839210;28;20232;-80
2023/05/13 12:53:20;;;;;;;6.27;3.00;;;21.20;60.70;;;;;;20837462;28;20205;-79
2023/05/13 13:03:22;;;;;;;4.73;2.90;;;21.00;61.10;;;;;;20836999;28;20236;-77
2023/05/13 13:13:25;;;;;;;7.97;2.80;;;21.10;61.20;;;;;;20836288;28;20660;-78
2023/05/13 13:23:27;;;;;;;3.03;2.47;;;21.30;60.20;;;;;;20835497;28;20236;-78
2023/05/13 13:33:29;;;;;;;3.37;2.20;;;21.70;59.40;;;;;;20834636;28;20204;-77
2023/05/13 13:43:31;;;;;;;2.10;1.90;;;22.00;58.50;;;;;;20833858;28;20289;-77
2023/05/13 13:53:32;;;;;;;2.27;1.77;;;22.20;57.00;;;;;;20833359;28;20209;-77
2023/05/13 14:03:34;;;;;;;1.73;1.63;;;22.70;56.00;;;;;;20832074;28;20648;-76
2023/05/13 14:13:36;;;;;;;1.90;1.73;;;22.50;55.70;;;;;;20831267;28;20237;-78
2023/05/13 14:23:40;;;;;;;2.70;1.80;;;22.20;56.00;;;;;;20830058;28;20236;-80
2023/05/13 14:33:42;;;;;;;3.80;2.40;;;21.30;56.80;;;;;;20829162;28;20204;-78
2023/05/13 14:43:44;;;;;;;4.07;2.60;;;20.30;58.10;;;;;;20827751;28;20286;-78
2023/05/13 14:53:46;;;;;;;4.83;2.80;;;19.20;60.90;;;;;;20826547;28;20216;-78
2023/05/13 15:03:47;;;;;;;6.70;2.73;;;19.00;62.80;;;;;;20825112;28;20243;-78
2023/05/13 15:13:49;;;;;;;4.23;2.83;;;18.70;64.20;;;;;;20828598;28;20587;-77
2023/05/13 15:23:51;;;;;;;6.37;3.30;;;18.60;65.60;;;;;;20861086;28;20299;-77
2023/05/13 15:33:53;;;;;;;7.13;3.10;;;18.60;66.90;;;;;;20841893;28;20207;-78
2023/05/13 15:43:55;;;;;;;4.13;3.17;;;18.80;68.00;;;;;;20828195;28;20240;-78
2023/05/13 15:53:56;;;;;;;3.83;2.50;;;19.20;67.90;;;;;;20832422;28;20219;-79
2023/05/13 16:03:58;;;;;;;5.27;3.10;;;19.60;68.10;;;;;;20840928;28;20244;-77
2023/05/13 16:14:00;;;;;;;3.23;2.77;;;19.50;68.20;;;;;;20840761;28;20236;-78
2023/05/13 16:24:01;;;;;;;3.43;3.10;;;19.20;69.00;;;;;;20839681;28;20293;-78
2023/05/13 16:34:03;;;;;;;2.00;1.80;;;20.20;68.50;;;;;;20839220;28;20244;-78
2023/05/13 16:44:05;;;;;;;2.73;1.60;;;20.50;66.00;;;;;;20838578;28;20236;-77
2023/05/13 16:54:06;;;;;;;1.60;1.40;;;24.00;59.80;;;;;;20837185;28;20271;-79
2023/05/13 17:04:08;;;;;;;3.15;1.25;;;24.20;56.00;;;;;;20835763;28;20259;-78
2023/05/13 17:14:10;;;;;;;1.40;1.30;;;25.90;52.10;;;;;;20835607;28;20638;-79
2023/05/13 17:24:11;;;;;;;1.40;1.30;;;25.90;49.80;;;;;;20834509;28;20240;-76
2023/05/13 17:34:13;;;;;;;4.53;1.65;;;28.60;46.20;;;;;;20833770;28;20728;-76
2023/05/13 17:44:15;;;;;;;3.43;1.60;;;27.60;46.60;;;;;;20833392;28;20294;-72
2023/05/13 17:54:16;;;;;;;3.60;1.70;;;24.00;51.00;;;;;;20832692;28;20298;-74
2023/05/13 18:04:18;;;;;;;6.07;2.27;;;22.10;53.60;;;;;;20830985;28;20236;-75
2023/05/13 18:14:20;;;;;;;2.17;1.87;;;21.10;55.30;;;;;;20829896;28;20232;-74
2023/05/13 18:24:21;;;;;;;2.87;2.03;;;20.10;57.90;;;;;;20829818;28;20236;-75
2023/05/13 18:34:23;;;;;;;2.97;2.20;;;19.90;58.50;;;;;;20829650;28;20204;-72
2023/05/13 18:44:25;;;;;;;9.27;2.30;;;19.40;59.50;;;;;;20829134;28;20232;-74
2023/05/13 18:54:28;;;;;;;2.43;2.17;;;18.90;61.50;;;;;;20830566;28;20621;-78
2023/05/13 19:04:29;;;;;;;3.37;2.33;;;18.80;62.50;;;;;;20913084;28;20240;-78
2023/05/13 19:14:31;;;;;;;2.70;2.13;;;18.50;62.80;;;;;;20913723;28;20321;-77
2023/05/13 19:24:33;;;;;;;4.30;2.30;;;18.10;63.50;;;;;;20909737;28;20288;-77
2023/05/13 19:34:35;;;;;;;2.50;2.30;;;18.10;64.80;;;;;;20924804;28;20263;-77
2023/05/13 19:44:37;;;;;;;4.60;2.30;;;18.00;65.50;;;;;;20923217;28;20307;-71
2023/05/13 19:54:38;;;;;;;4.63;2.13;;;17.90;67.00;;;;;;20922691;28;20209;-72
2023/05/13 20:04:40;;;;;;;4.90;2.53;;;17.80;67.60;;;;;;20921620;28;20756;-73
2023/05/13 20:14:44;;;;;;;4.63;2.60;;;17.60;67.70;;;;;;20920441;28;20233;-75
2023/05/13 20:24:46;;;;;;;2.83;2.53;;;17.60;67.70;;;;;;20920163;28;20375;-75
2023/05/13 20:34:48;;;;;;;3.67;2.90;;;17.50;67.50;;;;;;20919106;28;20202;-75
2023/05/13 20:44:50;;;;;;;4.27;3.13;;;17.50;68.10;;;;;;20916250;28;20699;-74
2023/05/13 20:54:52;;;;;;;3.50;2.80;;;17.20;67.90;;;;;;20917993;28;20658;-75
2023/05/13 21:04:54;;;;;;;3.50;3.20;;;17.10;68.70;;;;;;20916934;28;20239;-75
2023/05/13 21:14:56;;;;;;;3.70;3.40;;;16.80;69.20;;;;;;20916021;28;20239;-76
2023/05/13 21:24:57;;;;;;;3.83;3.50;;;16.60;69.60;;;;;;20915723;28;20250;-79
2023/05/13 21:34:59;;;;;;;4.80;3.53;;;16.40;70.00;;;;;;20914405;28;20212;-78
2023/05/13 21:45:02;;;;;;;4.87;3.87;;;16.40;70.30;;;;;;20913753;28;20309;-78
2023/05/13 21:55:04;;;;;;;4.83;3.80;;;16.30;71.10;;;;;;20913212;28;20254;-78
2023/05/13 22:05:06;;;;;;;6.43;4.10;;;16.00;71.80;;;;;;20912269;28;20238;-78
2023/05/13 22:15:08;;;;;;;4.03;3.63;;;15.80;72.80;;;;;;20911495;28;20243;-77
2023/05/13 22:25:10;;;;;;;5.93;3.83;;;15.50;73.30;;;;;;20913396;28;20235;-83
2023/05/13 22:35:11;;;;;;;5.53;3.80;;;15.30;74.90;;;;;;20952079;28;20204;-85
2023/05/13 22:45:14;;;;;;;4.50;4.10;;;15.10;75.90;;;;;;20920989;28;20258;-84
2023/05/13 22:55:16;;;;;;;6.07;4.80;;;14.90;76.90;;;;;;20912883;28;20257;-81
2023/05/13 23:05:18;;;;;;;4.80;4.03;;;14.70;79.10;;;;;;20922632;28;20286;-80
2023/05/13 23:15:19;;;;;;;6.07;4.70;;;14.50;80.70;;;;;;20927827;28;20757;-80
2023/05/13 23:25:21;;;;;;;4.70;4.30;;;14.20;81.90;;;;;;20927576;28;20236;-78
2023/05/13 23:35:23;;;;;;;5.40;4.70;;;14.10;84.00;;;;;;20925317;28;20713;-79
2023/05/13 23:45:24;;;;;;;6.17;5.13;;;13.90;85.60;;;;;;20925643;28;20370;-80
2023/05/13 23:55:26;;;;;;;12.37;6.40;;;13.70;88.00;;;;;;20925222;28;20224;-79
